Flugplatz Vettweiss-Soller (UL)

Hier findest Du alle Informationen zum Flugplatz Vettweiss-Soller (UL).

Informationen für Piloten zum Flugplatz Vettweiss-Soller

Hier findest Du alle relevanten Informationen, die Du als Pilot benötigst, um Vettweiss-Soller anzufliegen.

Flugplatz: Vettweiss-Soller ICAO-Code: UL Flugplatz
Frequenz Turm: 136,090 Mhz GAFOR Gebiet: 34
Frequenz Ground: 136,090 Mhz Mogas: nein
Platzrunde: O 1000 ft Landegebühr: -
Platzhöhe: - Sunrise: 03:17 Uhr UTC
Pisten: 14/32 - 360 m x 20 m, GRAS Sunset: 19:50 Uhr UTC

Flugwetter am Flugplatz Vettweiss-Soller

Die METAR Information stammen aus EDDK (42.55 km entfernt).

METAR Code:
2019/06/12 22:20
EDDK 122220Z 15004KT 110V180 CAVOK 14/09 Q1012 NOSIG

Flugschulen am Flugplatz Vettweiss-Soller

Am Flugplatz Vettweiss-Soller gibt es leider keine Flugschule.

Benachbarte Flugplätze und Flugschulen

Es gibt 16 weitere Flugplätze in einem Umkreis von 50 km um den Flugplatz Vettweiss-Soller.

Jetzt anmelden

Passwort vergessen

Umfrage Archiv

Welche Art von Theorieunterricht würde Dir am ehesten zusagen?

Frontalunterricht
64.4 %
Selbststudium
35.6 %
Stimmen: 376 | Diskussion
Anzeige: Roland Aircraft
Statistik Alle Mitglieder

Aktuell sind 56 Besucher online, davon 1 Mitglied und 55 Gäste.


Mitglieder online:
fiste 

Anzeige: VFR Sprechfunk Simulator


Anzeige: Pocket FMS